Time;durP1;ratioP1;P1;durP2;ratioP2;P2;SDS_P1;SDS_P2;PMS_P1;PMS_P2;Temp;Humidity;BMP_temperature;BMP_pressure;BME280_temperature;BME280_humidity;BME280_pressure;Samples;Min_cycle;Max_cycle;Signal;HPM_P1;HPM_P2
2021/09/22 00:02:04;;;;;;;22.00;21.00;;;;;;;11.72;100.00;98856.97;5033213;28;20462;-72
2021/09/22 00:04:29;;;;;;;20.98;19.58;;;;;;;11.73;100.00;98864.09;5030590;28;20111;-74
2021/09/22 00:06:55;;;;;;;21.58;20.38;;;;;;;11.71;100.00;98856.19;5030629;28;20051;-73
2021/09/22 00:09:20;;;;;;;20.20;19.30;;;;;;;11.78;100.00;98864.88;5012866;28;20025;-73
2021/09/22 00:11:46;;;;;;;23.63;22.55;;;;;;;11.94;100.00;98865.63;5030512;28;20017;-73
2021/09/22 00:14:11;;;;;;;21.63;20.67;;;;;;;11.91;100.00;98862.63;5012937;28;20364;-73
2021/09/22 00:16:37;;;;;;;23.27;22.17;;;;;;;11.74;100.00;98871.22;5030603;28;20030;-74
2021/09/22 00:19:03;;;;;;;20.95;19.90;;;;;;;11.96;100.00;98868.13;5030476;28;20557;-73
2021/09/22 00:21:28;;;;;;;21.77;20.88;;;;;;;11.67;100.00;98870.66;5030488;28;20026;-73
2021/09/22 00:23:54;;;;;;;21.55;20.45;;;;;;;11.64;100.00;98869.31;5030461;28;20025;-72
2021/09/22 00:26:19;;;;;;;23.92;22.83;;;;;;;11.42;100.00;98868.84;5030626;28;20022;-73
2021/09/22 00:28:45;;;;;;;24.38;23.25;;;;;;;11.31;100.00;98866.41;5030852;28;20116;-72
2021/09/22 00:31:10;;;;;;;28.63;27.42;;;;;;;11.24;100.00;98853.78;5012780;28;20025;-73
2021/09/22 00:33:35;;;;;;;30.35;28.92;;;;;;;11.24;100.00;98861.22;5012682;28;20470;-73
2021/09/22 00:36:01;;;;;;;27.98;26.40;;;;;;;11.24;100.00;98845.56;5030430;28;20482;-73
2021/09/22 00:38:26;;;;;;;31.38;29.95;;;;;;;11.18;100.00;98857.66;5012771;28;20025;-75
2021/09/22 00:40:52;;;;;;;24.70;23.60;;;;;;;11.13;100.00;98863.13;5012436;28;20045;-74
2021/09/22 00:43:18;;;;;;;26.50;25.08;;;;;;;11.12;100.00;98860.69;5030177;28;20032;-73
2021/09/22 00:45:43;;;;;;;27.52;26.20;;;;;;;11.23;100.00;98870.53;5030337;28;20033;-73
2021/09/22 00:48:09;;;;;;;29.05;27.75;;;;;;;11.27;100.00;98860.66;5030186;28;20030;-74
2021/09/22 00:50:35;;;;;;;32.35;30.70;;;;;;;11.16;100.00;98873.53;5012403;28;20068;-73
2021/09/22 00:53:01;;;;;;;34.70;33.00;;;;;;;11.08;100.00;98865.06;5012271;28;20036;-73
2021/09/22 00:55:27;;;;;;;36.38;34.67;;;;;;;11.06;100.00;98865.34;5030034;28;20025;-73
2021/09/22 00:57:54;;;;;;;32.83;31.23;;;;;;;11.14;100.00;98862.06;5030123;28;20029;-73
2021/09/22 01:00:29;;;;;;;39.25;37.22;;;;;;;11.07;100.00;98856.03;5030546;28;20018;-75
2021/09/22 01:02:54;;;;;;;39.53;37.83;;;;;;;11.02;100.00;98852.50;5010324;28;20076;-73
2021/09/22 01:05:25;;;;;;;40.08;38.25;;;;;;;11.18;100.00;98851.38;5012016;28;20062;-73
2021/09/22 01:07:52;;;;;;;46.05;44.15;;;;;;;11.05;100.00;98846.47;5029533;28;20037;-73
2021/09/22 01:10:18;;;;;;;42.95;40.85;;;;;;;10.91;100.00;98845.38;5011836;28;20133;-73
2021/09/22 01:12:44;;;;;;;46.92;44.83;;;;;;;10.88;100.00;98845.91;5032245;28;20041;-73
2021/09/22 01:15:10;;;;;;;48.45;46.15;;;;;;;10.86;100.00;98837.19;5033410;28;20061;-73
2021/09/22 01:17:36;;;;;;;46.10;43.90;;;;;;;10.75;100.00;98842.66;5033517;28;20029;-72
2021/09/22 01:20:07;;;;;;;45.25;43.35;;;;;;;10.70;100.00;98839.94;5032931;28;20448;-73
2021/09/22 01:22:33;;;;;;;52.60;50.33;;;;;;;10.84;100.00;98842.13;5033687;28;20025;-74
2021/09/22 01:24:59;;;;;;;51.83;49.50;;;;;;;10.93;100.00;98840.47;5017489;28;20040;-72
2021/09/22 01:27:26;;;;;;;50.15;48.05;;;;;;;10.90;100.00;98843.75;5035101;28;20033;-72
2021/09/22 01:29:51;;;;;;;46.55;44.53;;;;;;;11.04;100.00;98839.34;5015889;28;20033;-74
2021/09/22 01:32:17;;;;;;;45.67;43.63;;;;;;;11.21;100.00;98840.66;5015474;28;20034;-73
2021/09/22 01:34:43;;;;;;;44.35;42.42;;;;;;;11.10;100.00;98838.22;5033206;28;20053;-73
2021/09/22 01:37:08;;;;;;;38.60;36.80;;;;;;;11.18;100.00;98840.41;5015242;28;20086;-72
2021/09/22 01:39:42;;;;;;;26.40;25.23;;;;;;;10.92;100.00;98830.59;5033067;28;20105;-73
2021/09/22 01:42:08;;;;;;;36.88;35.20;;;;;;;10.63;100.00;98838.56;5014924;28;20075;-72
2021/09/22 01:44:34;;;;;;;45.83;43.92;;;;;;;10.58;100.00;98835.81;5014863;28;20109;-73
2021/09/22 01:47:00;;;;;;;50.63;48.40;;;;;;;10.60;100.00;98831.72;5032152;28;20131;-73
2021/09/22 01:49:26;;;;;;;53.67;51.17;;;;;;;10.43;100.00;98833.09;5032816;28;20440;-72
2021/09/22 01:51:59;;;;;;;51.50;49.22;;;;;;;10.34;100.00;98834.72;5032707;28;20112;-74
2021/09/22 01:54:25;;;;;;;50.80;48.55;;;;;;;10.19;100.00;98832.78;5033235;28;20021;-72
2021/09/22 01:56:51;;;;;;;46.10;44.20;;;;;;;10.06;100.00;98834.09;5016279;28;20064;-74
2021/09/22 01:59:17;;;;;;;45.20;43.25;;;;;;;10.20;100.00;98828.97;5036055;28;20080;-73
2021/09/22 02:01:42;;;;;;;40.60;38.80;;;;;;;10.19;100.00;98835.50;5032769;28;20033;-73
2021/09/22 02:04:07;;;;;;;44.15;42.33;;;;;;;10.14;100.00;98830.88;5014902;28;20371;-73
2021/09/22 02:06:33;;;;;;;48.72;46.17;;;;;;;9.98;100.00;98831.88;5032424;28;20437;-73
2021/09/22 02:08:58;;;;;;;52.53;49.90;;;;;;;9.96;100.00;98828.59;5031992;28;20049;-72
2021/09/22 02:11:24;;;;;;;46.00;44.05;;;;;;;10.04;100.00;98827.25;5014251;28;20075;-73
2021/09/22 02:13:49;;;;;;;42.25;40.45;;;;;;;9.96;100.00;98820.38;5032108;28;20029;-72
2021/09/22 02:16:15;;;;;;;40.30;38.45;;;;;;;9.93;100.00;98818.19;5032097;28;20024;-73
2021/09/22 02:18:41;;;;;;;39.58;37.78;;;;;;;9.84;100.00;98830.75;5032465;28;20163;-73
2021/09/22 02:21:09;;;;;;;43.97;41.85;;;;;;;9.93;100.00;98820.13;5032311;28;20478;-74
2021/09/22 02:23:38;;;;;;;27.98;26.73;;;;;;;9.90;100.00;98823.41;5031806;28;20067;-74
2021/09/22 02:26:04;;;;;;;27.13;25.92;;;;;;;9.87;100.00;98823.91;5032202;28;20029;-73
2021/09/22 02:28:29;;;;;;;28.35;27.05;;;;;;;9.74;100.00;98824.44;5014492;28;20033;-73
2021/09/22 02:30:55;;;;;;;28.08;26.75;;;;;;;9.69;100.00;98817.88;5032366;28;20482;-73
2021/09/22 02:33:20;;;;;;;29.85;28.58;;;;;;;9.65;100.00;98822.22;5032220;28;20175;-73
2021/09/22 02:35:45;;;;;;;31.15;29.75;;;;;;;9.88;100.00;98812.72;5014378;28;20026;-74
2021/09/22 02:38:11;;;;;;;36.95;35.08;;;;;;;9.88;100.00;98809.19;5031979;28;20183;-73
2021/09/22 02:40:36;;;;;;;33.95;32.00;;;;;;;9.85;100.00;98810.53;5014214;28;20077;-73
2021/09/22 02:43:02;;;;;;;31.95;30.45;;;;;;;9.99;100.00;98811.66;5013562;28;20025;-75
2021/09/22 02:45:27;;;;;;;29.40;28.10;;;;;;;10.12;100.00;98804.84;5013785;28;20029;-73
2021/09/22 02:47:53;;;;;;;27.63;26.23;;;;;;;10.16;100.00;98803.25;5031603;28;20034;-73
2021/09/22 02:50:18;;;;;;;28.52;27.13;;;;;;;10.05;100.00;98793.38;5031914;28;20505;-73
2021/09/22 02:52:46;;;;;;;29.10;27.60;;;;;;;9.95;100.00;98793.34;5014204;28;20087;-72
2021/09/22 02:55:11;;;;;;;23.95;22.92;;;;;;;9.82;100.00;98786.50;5031896;28;20036;-74
2021/09/22 02:57:37;;;;;;;26.40;25.23;;;;;;;9.96;100.00;98782.13;5013743;28;20018;-74
2021/09/22 03:00:07;;;;;;;25.92;24.80;;;;;;;10.04;100.00;98789.00;5032002;28;20466;-72
2021/09/22 03:02:33;;;;;;;22.83;21.73;;;;;;;9.86;100.00;98784.03;5031864;28;20037;-72
2021/09/22 03:04:59;;;;;;;27.70;26.45;;;;;;;9.93;100.00;98787.34;5031490;28;20040;-73
2021/09/22 03:07:24;;;;;;;29.30;27.95;;;;;;;9.90;100.00;98775.00;5031608;28;20025;-73
2021/09/22 03:09:50;;;;;;;31.58;30.15;;;;;;;10.02;100.00;98774.78;5031388;28;20036;-72
2021/09/22 03:12:15;;;;;;;33.03;31.52;;;;;;;10.05;100.00;98787.91;5029828;28;20611;-73
2021/09/22 03:14:41;;;;;;;31.73;30.42;;;;;;;10.09;100.00;98778.03;5031092;28;20037;-73
2021/09/22 03:17:06;;;;;;;34.05;32.58;;;;;;;10.07;100.00;98775.59;5031174;28;20021;-73
2021/09/22 03:19:32;;;;;;;31.13;29.70;;;;;;;10.16;100.00;98779.47;5031095;28;20056;-74
2021/09/22 03:21:57;;;;;;;30.40;28.85;;;;;;;10.14;100.00;98780.84;5031084;28;20033;-73
2021/09/22 03:24:23;;;;;;;32.42;30.85;;;;;;;10.00;100.00;98774.22;5031010;28;20395;-73
2021/09/22 03:26:49;;;;;;;28.92;27.50;;;;;;;10.13;100.00;98779.16;5030936;28;20041;-73
2021/09/22 03:29:15;;;;;;;26.55;25.25;;;;;;;10.11;100.00;98775.88;5031033;28;20025;-72
2021/09/22 03:31:42;;;;;;;34.83;33.25;;;;;;;10.17;100.00;98780.28;5013936;28;20033;-73
2021/09/22 03:34:08;;;;;;;42.53;40.50;;;;;;;10.11;100.00;98775.88;5013119;28;20478;-74
2021/09/22 03:36:34;;;;;;;50.90;48.65;;;;;;;9.96;100.00;98775.88;5016277;28;20021;-73
2021/09/22 03:38:59;;;;;;;50.22;48.15;;;;;;;9.87;100.00;98780.19;5014660;28;20025;-73
2021/09/22 03:41:25;;;;;;;53.10;50.85;;;;;;;9.88;100.00;98776.38;5013235;28;20494;-73
2021/09/22 03:43:50;;;;;;;56.58;53.97;;;;;;;9.80;100.00;98760.53;5012758;28;20056;-73
2021/09/22 03:46:16;;;;;;;41.85;40.03;;;;;;;9.78;100.00;98762.69;5012972;28;20143;-74
2021/09/22 03:48:41;;;;;;;41.63;39.75;;;;;;;9.67;100.00;98767.34;5012996;28;20037;-73
2021/09/22 03:51:07;;;;;;;33.05;31.65;;;;;;;9.64;100.00;98752.31;5030898;28;20101;-73
2021/09/22 03:53:32;;;;;;;35.17;33.67;;;;;;;9.50;100.00;98764.00;5030488;28;20025;-73
2021/09/22 03:55:58;;;;;;;33.30;31.80;;;;;;;9.28;100.00;98750.53;5032426;28;20044;-72
2021/09/22 03:58:23;;;;;;;40.30;38.45;;;;;;;9.31;100.00;98758.19;5031340;28;20029;-73
2021/09/22 04:00:49;;;;;;;49.13;47.10;;;;;;;9.49;100.00;98749.50;5030793;28;20465;-73
2021/09/22 04:03:14;;;;;;;36.35;34.25;;;;;;;9.42;100.00;98746.25;5029618;28;20056;-73
2021/09/22 04:05:39;;;;;;;37.13;35.47;;;;;;;9.37;100.00;98735.28;5030315;28;20030;-73
2021/09/22 04:08:05;;;;;;;39.80;38.05;;;;;;;9.47;100.00;98754.44;5029865;28;20033;-73
2021/09/22 04:10:30;;;;;;;47.13;45.00;;;;;;;9.51;100.00;98744.63;5012592;28;20517;-73
2021/09/22 04:12:56;;;;;;;48.90;46.72;;;;;;;9.37;100.00;98748.94;5029842;28;20068;-73
2021/09/22 04:15:21;;;;;;;52.90;50.65;;;;;;;9.39;100.00;98746.78;5030255;28;20076;-73
2021/09/22 04:17:47;;;;;;;51.95;49.72;;;;;;;9.35;100.00;98742.94;5030030;28;20030;-73
2021/09/22 04:20:13;;;;;;;47.90;45.83;;;;;;;9.36;100.00;98747.31;5028646;28;20037;-74
2021/09/22 04:22:41;;;;;;;45.75;43.85;;;;;;;9.53;100.00;98747.06;5030087;28;20029;-73
2021/09/22 04:25:12;;;;;;;56.97;54.47;;;;;;;9.39;100.00;98741.31;5030299;28;20175;-73
2021/09/22 04:27:38;;;;;;;58.97;56.55;;;;;;;9.18;100.00;98745.03;5029980;28;20406;-73
2021/09/22 04:30:05;;;;;;;62.05;59.45;;;;;;;9.06;100.00;98741.72;5030494;28;20037;-74
2021/09/22 04:32:31;;;;;;;51.47;49.28;;;;;;;9.09;100.00;98735.72;5030506;28;20402;-73
2021/09/22 04:34:56;;;;;;;39.92;38.25;;;;;;;9.06;100.00;98733.53;5030181;28;20029;-73
2021/09/22 04:37:22;;;;;;;33.28;31.83;;;;;;;9.12;100.00;98735.19;5012324;28;20462;-73
2021/09/22 04:39:48;;;;;;;28.17;26.85;;;;;;;9.03;100.00;98729.44;5012167;28;20362;-73
2021/09/22 04:42:13;;;;;;;30.35;28.95;;;;;;;9.05;100.00;98734.63;5028282;28;20136;-74
2021/09/22 04:44:39;;;;;;;32.47;30.88;;;;;;;9.19;100.00;98730.31;5030259;28;20053;-77
2021/09/22 04:47:05;;;;;;;28.23;26.92;;;;;;;9.12;100.00;98732.47;5021967;28;20029;-76
2021/09/22 04:49:31;;;;;;;31.15;29.85;;;;;;;9.30;100.00;98734.72;5025565;28;20032;-75
2021/09/22 04:51:56;;;;;;;29.00;27.52;;;;;;;9.10;100.00;98716.38;5041813;28;20037;-76
2021/09/22 04:54:22;;;;;;;33.25;31.65;;;;;;;9.10;100.00;98729.19;5049560;28;20025;-74
2021/09/22 04:56:47;;;;;;;32.75;31.35;;;;;;;9.15;100.00;98726.47;5043562;28;20030;-74
2021/09/22 04:59:13;;;;;;;32.25;30.85;;;;;;;9.21;100.00;98728.13;5041619;28;20018;-74
2021/09/22 05:01:39;;;;;;;28.52;27.13;;;;;;;9.14;100.00;98733.84;5043310;28;20025;-75
2021/09/22 05:04:05;;;;;;;28.50;27.25;;;;;;;8.86;100.00;98731.53;5041175;28;20033;-75
2021/09/22 05:06:31;;;;;;;26.92;25.73;;;;;;;8.88;100.00;98728.53;5034644;28;20033;-74
2021/09/22 05:08:56;;;;;;;30.15;28.70;;;;;;;9.09;100.00;98733.00;5035283;28;20121;-74
2021/09/22 05:11:24;;;;;;;30.80;29.42;;;;;;;9.00;100.00;98729.97;5033982;28;20032;-75
2021/09/22 05:13:50;;;;;;;31.50;29.90;;;;;;;8.99;100.00;98731.03;5017009;28;20030;-75
2021/09/22 05:16:15;;;;;;;27.52;26.38;;;;;;;8.90;100.00;98720.88;5034208;28;20040;-73
2021/09/22 05:18:41;;;;;;;29.90;28.60;;;;;;;9.11;100.00;98733.56;5039029;28;20029;-74
2021/09/22 05:21:06;;;;;;;26.33;25.23;;;;;;;9.12;100.00;98730.56;5043719;28;20051;-73
2021/09/22 05:23:32;;;;;;;44.80;42.70;;;;;;;9.09;100.00;98730.25;5053947;28;20017;-74
2021/09/22 05:25:57;;;;;;;39.80;38.10;;;;;;;8.95;100.00;98740.03;5019481;28;20079;-73
2021/09/22 05:28:23;;;;;;;32.55;31.08;;;;;;;8.99;100.00;98733.75;5053943;28;20048;-74
2021/09/22 05:30:48;;;;;;;30.25;28.95;;;;;;;9.12;100.00;98737.91;5053386;28;20044;-74
2021/09/22 05:33:13;;;;;;;28.13;26.58;;;;;;;9.19;100.00;98730.31;5035847;28;20067;-75
2021/09/22 05:35:39;;;;;;;32.85;31.13;;;;;;;9.38;100.00;98738.84;5053340;28;20029;-74
2021/09/22 05:38:06;;;;;;;61.40;58.65;;;;;;;9.33;100.00;98720.53;5035640;28;20028;-75
2021/09/22 05:40:33;;;;;;;94.65;90.75;;;;;;;9.46;100.00;98724.69;5053581;28;20060;-75
2021/09/22 05:42:58;;;;;;;136.63;130.85;;;;;;;9.48;100.00;98734.25;5053756;28;20477;-75
2021/09/22 05:45:24;;;;;;;123.13;117.97;;;;;;;9.69;100.00;98740.56;5035617;28;20029;-75
2021/09/22 05:47:49;;;;;;;134.77;129.23;;;;;;;9.76;100.00;98746.59;5052617;28;20116;-76
2021/09/22 05:50:15;;;;;;;129.57;124.10;;;;;;;9.84;100.00;98742.50;5053640;28;20413;-76
2021/09/22 05:52:41;;;;;;;86.63;83.00;;;;;;;9.80;100.00;98738.69;5032440;28;20044;-75
2021/09/22 05:55:06;;;;;;;55.70;53.25;;;;;;;10.01;100.00;98751.28;5010695;28;20117;-76
2021/09/22 05:57:32;;;;;;;35.13;33.63;;;;;;;10.11;100.00;98749.38;5012298;28;20033;-75
2021/09/22 05:59:57;;;;;;;42.83;41.00;;;;;;;10.17;100.00;98758.41;5012765;28;20026;-75
2021/09/22 06:02:23;;;;;;;24.88;23.75;;;;;;;10.14;100.00;98742.56;5013555;28;20103;-76
2021/09/22 06:04:48;;;;;;;33.17;31.27;;;;;;;10.15;100.00;98749.66;5012961;28;20080;-76
2021/09/22 06:07:14;;;;;;;29.35;28.05;;;;;;;10.29;100.00;98749.94;5012670;28;20029;-76
2021/09/22 06:09:39;;;;;;;27.95;26.75;;;;;;;10.32;100.00;98749.38;4987871;28;20539;-75
2021/09/22 06:12:05;;;;;;;23.15;22.13;;;;;;;10.41;100.00;98753.22;5011843;28;20030;-76
2021/09/22 06:14:31;;;;;;;27.98;26.77;;;;;;;10.43;100.00;98746.38;5013199;28;20038;-77
2021/09/22 06:16:56;;;;;;;31.92;30.48;;;;;;;10.42;100.00;98739.28;5012760;28;20029;-77
2021/09/22 06:19:22;;;;;;;32.10;30.65;;;;;;;10.46;100.00;98734.88;5012852;28;20057;-77
2021/09/22 06:21:47;;;;;;;29.58;28.17;;;;;;;10.61;100.00;98732.16;5012615;28;20060;-76
2021/09/22 06:24:18;;;;;;;28.67;27.13;;;;;;;10.75;100.00;98722.25;5012586;28;20136;-76
2021/09/22 06:26:44;;;;;;;22.60;21.48;;;;;;;10.67;100.00;98735.69;5012613;28;20034;-75
2021/09/22 06:29:09;;;;;;;25.23;23.98;;;;;;;10.73;100.00;98746.34;5012179;28;20576;-76
2021/09/22 06:31:37;;;;;;;24.40;23.30;;;;;;;10.68;100.00;98738.13;5011687;28;20030;-77
2021/09/22 06:34:05;;;;;;;27.33;26.02;;;;;;;10.71;100.00;98739.50;5012992;28;20797;-76
2021/09/22 06:36:30;;;;;;;24.77;23.63;;;;;;;10.80;100.00;98737.03;5012591;28;20409;-76
2021/09/22 06:38:56;;;;;;;25.55;24.45;;;;;;;10.82;100.00;98737.56;5012163;28;20108;-76
2021/09/22 06:41:23;;;;;;;22.80;21.80;;;;;;;11.38;96.22;98741.75;5012556;28;20092;-76
2021/09/22 06:43:49;;;;;;;33.55;30.80;;;;;;;11.28;96.08;98748.06;5011738;28;20038;-76
2021/09/22 06:46:15;;;;;;;33.78;31.65;;;;;;;11.18;95.84;98736.38;5011840;28;20038;-76
2021/09/22 06:48:40;;;;;;;38.05;36.25;;;;;;;11.50;95.08;98739.47;5012077;28;20466;-76
2021/09/22 06:51:06;;;;;;;29.65;28.40;;;;;;;11.55;94.23;98739.47;5012506;28;20393;-75
2021/09/22 06:53:37;;;;;;;34.25;32.80;;;;;;;11.57;93.33;98736.44;5012138;28;20538;-76
2021/09/22 06:56:03;;;;;;;26.95;25.85;;;;;;;11.48;93.86;98741.69;5012404;28;20069;-76
2021/09/22 06:58:28;;;;;;;23.75;22.75;;;;;;;11.71;93.21;98735.59;5012296;28;20034;-75
2021/09/22 07:00:54;;;;;;;23.42;21.63;;;;;;;11.58;93.33;98732.59;5012210;28;20054;-76
2021/09/22 07:03:19;;;;;;;23.65;22.55;;;;;;;11.29;94.15;98738.78;5012253;28;20478;-77
2021/09/22 07:05:45;;;;;;;24.10;23.10;;;;;;;11.41;93.70;98741.16;5003877;28;20040;-75
2021/09/22 07:08:11;;;;;;;24.48;23.35;;;;;;;11.78;92.06;98752.50;5011847;28;20038;-74
2021/09/22 07:10:37;;;;;;;26.92;25.73;;;;;;;12.39;88.00;98749.34;5010849;28;20033;-74
2021/09/22 07:13:03;;;;;;;29.08;27.02;;;;;;;11.90;89.83;98734.91;5016200;28;20049;-75
2021/09/22 07:15:29;;;;;;;25.17;23.98;;;;;;;12.30;88.29;98743.66;5012254;28;20482;-75
2021/09/22 07:17:57;;;;;;;23.70;22.60;;;;;;;12.22;88.65;98757.97;5011982;28;20117;-75
2021/09/22 07:20:24;;;;;;;23.92;22.83;;;;;;;12.43;87.69;98769.63;5012319;28;20029;-77
2021/09/22 07:22:49;;;;;;;32.13;30.73;;;;;;;12.34;87.54;98760.38;5013798;28;20048;-75
2021/09/22 07:25:15;;;;;;;29.77;28.33;;;;;;;12.25;87.18;98759.31;5012127;28;20467;-75
2021/09/22 07:27:40;;;;;;;28.20;26.80;;;;;;;12.61;86.23;98755.19;5012643;28;20079;-75
2021/09/22 07:30:08;;;;;;;27.33;26.02;;;;;;;12.84;83.88;98748.88;5012406;28;20375;-75
2021/09/22 07:32:34;;;;;;;30.17;28.88;;;;;;;12.90;83.03;98750.47;5011808;28;20026;-74
2021/09/22 07:34:59;;;;;;;21.88;20.98;;;;;;;13.02;82.65;98750.09;5011007;28;20033;-75
2021/09/22 07:37:25;;;;;;;22.05;20.83;;;;;;;13.34;81.26;98749.47;5011906;28;20120;-74
2021/09/22 07:39:50;;;;;;;22.45;21.52;;;;;;;14.07;76.84;98749.81;5012790;28;20052;-75
2021/09/22 07:42:16;;;;;;;18.70;17.88;;;;;;;13.89;77.41;98742.41;5012085;28;20057;-75
2021/09/22 07:44:47;;;;;;;17.83;17.13;;;;;;;14.53;74.32;98758.22;5004219;28;20077;-76
2021/09/22 07:47:16;;;;;;;18.77;17.92;;;;;;;14.33;75.83;98751.09;5011180;28;20037;-74
2021/09/22 07:49:43;;;;;;;17.67;16.88;;;;;;;15.77;69.95;98746.97;5011342;28;20030;-73
2021/09/22 07:52:10;;;;;;;19.65;18.73;;;;;;;16.26;66.72;98761.84;5011350;28;20030;-74
2021/09/22 07:54:37;;;;;;;20.02;18.48;;;;;;;15.99;67.71;98758.06;5011498;28;20033;-75
2021/09/22 07:57:04;;;;;;;18.38;17.48;;;;;;;16.10;67.83;98755.88;5011337;28;20394;-73
2021/09/22 07:59:30;;;;;;;16.85;16.05;;;;;;;16.23;66.58;98756.97;5011532;28;20116;-73
2021/09/22 08:01:59;;;;;;;21.33;20.20;;;;;;;15.79;68.39;98764.03;5012197;28;20494;-74
2021/09/22 08:04:25;;;;;;;18.10;17.30;;;;;;;15.99;67.23;98755.31;5008559;28;20026;-73
2021/09/22 08:06:50;;;;;;;15.50;14.80;;;;;;;16.33;66.46;98757.53;5011033;28;20044;-74
2021/09/22 08:09:16;;;;;;;18.42;17.42;;;;;;;17.63;61.38;98755.22;5007126;28;20026;-73
2021/09/22 08:11:42;;;;;;;16.85;15.95;;;;;;;16.87;63.40;98759.25;5009008;28;20028;-73
2021/09/22 08:14:09;;;;;;;18.15;17.15;;;;;;;16.35;65.73;98748.97;5023584;28;20025;-73
2021/09/22 08:16:35;;;;;;;18.60;17.73;;;;;;;16.48;65.51;98759.09;5037948;28;20030;-73
2021/09/22 08:19:00;;;;;;;17.40;16.60;;;;;;;16.51;65.98;98751.00;5037051;28;20843;-74
2021/09/22 08:21:26;;;;;;;18.33;17.42;;;;;;;17.18;63.16;98764.75;5038538;28;20025;-76
2021/09/22 08:23:51;;;;;;;19.45;18.35;;;;;;;17.13;62.16;98753.84;5038215;28;20729;-73
2021/09/22 08:26:17;;;;;;;17.48;16.77;;;;;;;16.95;62.62;98746.59;5022194;28;20476;-76
2021/09/22 08:28:42;;;;;;;18.27;17.40;;;;;;;17.24;61.98;98759.91;5037979;28;20474;-74
2021/09/22 08:31:10;;;;;;;18.92;18.02;;;;;;;17.64;61.18;98756.00;5038892;28;20017;-75
2021/09/22 08:33:36;;;;;;;18.58;17.63;;;;;;;18.28;58.00;98746.00;5032547;28;20033;-74
2021/09/22 08:36:01;;;;;;;17.40;16.65;;;;;;;18.31;59.06;98755.59;5039627;28;20033;-74
2021/09/22 08:38:27;;;;;;;16.45;15.45;;;;;;;18.51;57.28;98743.91;5038874;28;20029;-74
2021/09/22 08:40:53;;;;;;;14.93;14.23;;;;;;;18.29;57.82;98741.28;5038012;28;20040;-73
2021/09/22 08:43:26;;;;;;;15.98;15.25;;;;;;;17.86;59.07;98750.34;5039785;28;20029;-74
2021/09/22 08:45:52;;;;;;;14.70;13.93;;;;;;;19.96;53.04;98739.75;5039619;28;20028;-73
2021/09/22 08:48:17;;;;;;;13.27;12.57;;;;;;;19.41;53.93;98739.09;5034462;28;20033;-74
2021/09/22 08:50:43;;;;;;;13.27;12.57;;;;;;;19.44;54.34;98741.19;5033145;28;20032;-73
2021/09/22 08:53:08;;;;;;;13.07;12.38;;;;;;;19.34;53.46;98738.75;5032942;28;20052;-74
2021/09/22 08:55:34;;;;;;;12.85;12.25;;;;;;;19.44;53.98;98735.66;5017398;28;20036;-72
2021/09/22 08:58:01;;;;;;;12.23;11.63;;;;;;;20.08;52.16;98739.81;5039418;28;20500;-72
2021/09/22 09:00:27;;;;;;;14.82;14.07;;;;;;;19.90;53.52;98737.50;5036706;28;20040;-74
2021/09/22 09:02:53;;;;;;;14.10;13.40;;;;;;;20.35;52.04;98741.28;5039624;28;20025;-73
2021/09/22 09:05:20;;;;;;;13.27;12.57;;;;;;;21.55;47.88;98739.97;5018758;28;20029;-74
2021/09/22 09:07:55;;;;;;;13.25;12.48;;;;;;;20.45;50.33;98735.31;5043091;28;20029;-73
2021/09/22 09:10:24;;;;;;;16.92;16.00;;;;;;;18.78;55.55;98737.97;5051489;28;20037;-74
2021/09/22 09:13:11;;;;;;;19.27;18.17;;;;;;;19.04;54.66;98724.03;5022177;28;20031;-74
2021/09/22 09:15:44;;;;;;;17.95;17.02;;;;;;;19.70;53.46;98728.00;5020597;28;20108;-74
2021/09/22 09:18:20;;;;;;;17.23;16.35;;;;;;;19.39;54.27;98735.81;5054392;28;20539;-75
2021/09/22 09:20:47;;;;;;;17.95;16.98;;;;;;;21.47;48.18;98735.34;5051932;28;20029;-73
2021/09/22 09:23:16;;;;;;;17.27;16.48;;;;;;;20.56;50.73;98730.94;5033770;28;20037;-74
2021/09/22 09:25:57;;;;;;;19.42;18.42;;;;;;;19.59;53.32;98732.31;5028892;28;20417;-74
2021/09/22 09:28:27;;;;;;;18.23;17.42;;;;;;;19.00;55.25;98729.44;5028830;28;20037;-73
2021/09/22 09:30:56;;;;;;;18.75;17.42;;;;;;;18.41;56.27;98739.47;5028881;28;20438;-74
2021/09/22 09:33:41;;;;;;;17.15;16.17;;;;;;;18.97;54.37;98735.66;5016727;28;20025;-77
2021/09/22 09:36:36;;;;;;;13.07;12.30;;;;;;;18.27;55.55;98721.38;5041937;28;20118;-75
2021/09/22 09:39:14;;;;;;;14.43;13.73;;;;;;;19.45;52.42;98726.19;5031181;28;20033;-74
2021/09/22 09:41:49;;;;;;;15.05;14.15;;;;;;;20.13;50.78;98722.94;5012588;28;20132;-76
2021/09/22 09:44:25;;;;;;;13.68;12.75;;;;;;;20.23;50.06;98719.78;5020870;28;20758;-75
2021/09/22 09:46:53;;;;;;;13.55;12.85;;;;;;;19.75;50.51;98700.03;5052585;28;20116;-74
2021/09/22 09:49:21;;;;;;;12.35;11.75;;;;;;;21.86;45.49;98726.25;5041207;28;20025;-75
2021/09/22 09:51:58;;;;;;;14.95;13.93;;;;;;;23.08;41.90;98723.06;5033062;28;20029;-72
2021/09/22 09:54:32;;;;;;;13.27;12.68;;;;;;;23.22;40.64;98718.66;5031800;28;20029;-73
2021/09/22 09:57:10;;;;;;;11.80;11.20;;;;;;;21.57;44.18;98701.47;5032444;28;20029;-73
2021/09/22 09:59:46;;;;;;;14.40;13.70;;;;;;;20.59;46.85;98705.22;5032822;28;20038;-73
2021/09/22 10:02:34;;;;;;;12.63;12.02;;;;;;;20.68;44.36;98696.78;5032325;28;20064;-73
2021/09/22 10:05:01;;;;;;;13.27;12.63;;;;;;;22.22;40.64;98703.09;5032510;28;20035;-73
2021/09/22 10:07:29;;;;;;;12.35;11.75;;;;;;;23.14;38.73;98700.09;5026493;28;20034;-74
2021/09/22 10:09:55;;;;;;;14.93;13.80;;;;;;;22.83;39.48;98694.50;5019391;28;20025;-73
2021/09/22 10:12:24;;;;;;;11.77;11.18;;;;;;;24.17;36.91;98689.44;5046751;28;20025;-74
2021/09/22 10:14:52;;;;;;;12.43;11.82;;;;;;;24.22;37.12;98688.31;5041829;28;20029;-74
2021/09/22 10:17:23;;;;;;;12.60;12.00;;;;;;;24.45;36.63;98680.81;5040407;28;20029;-72
2021/09/22 10:19:48;;;;;;;12.38;11.77;;;;;;;24.07;36.79;98659.22;5039611;28;20056;-74
2021/09/22 10:22:14;;;;;;;12.75;12.00;;;;;;;24.01;35.31;98652.31;5037740;28;20418;-75
2021/09/22 10:24:44;;;;;;;13.48;12.88;;;;;;;24.42;37.53;98648.00;5046996;28;20061;-73
2021/09/22 10:27:16;;;;;;;13.20;12.50;;;;;;;24.20;38.74;98646.75;5045913;28;20025;-75
2021/09/22 10:29:58;;;;;;;10.82;10.32;;;;;;;25.65;32.17;98657.00;5043140;28;20033;-73
2021/09/22 10:32:45;;;;;;;12.05;11.48;;;;;;;25.33;31.75;98654.47;5039515;28;20030;-73
2021/09/22 10:35:26;;;;;;;10.48;9.93;;;;;;;25.65;31.26;98659.81;5033784;28;20112;-75
2021/09/22 10:37:53;;;;;;;10.90;10.43;;;;;;;25.79;30.61;98652.41;5036724;28;20033;-74
2021/09/22 10:40:51;;;;;;;11.05;10.55;;;;;;;26.61;29.94;98641.06;5040500;28;20029;-74
2021/09/22 10:43:17;;;;;;;12.00;11.40;;;;;;;25.29;32.77;98634.00;4975137;28;20037;-72
2021/09/22 10:45:44;;;;;;;10.43;9.95;;;;;;;25.37;31.68;98632.13;5046822;28;20036;-72
2021/09/22 10:48:21;;;;;;;10.95;10.35;;;;;;;25.11;30.90;98621.69;5039481;28;20478;-73
2021/09/22 10:50:50;;;;;;;12.05;11.45;;;;;;;25.37;31.61;98618.91;5037695;28;20021;-73
2021/09/22 10:53:31;;;;;;;11.43;10.93;;;;;;;25.05;30.90;98614.78;5040185;28;20437;-75
2021/09/22 10:55:59;;;;;;;13.00;12.40;;;;;;;25.26;31.67;98611.53;5041450;28;20048;-74
2021/09/22 10:58:32;;;;;;;10.77;10.27;;;;;;;24.56;32.12;98609.06;5048959;28;20081;-74
2021/09/22 11:00:58;;;;;;;11.60;10.95;;;;;;;24.49;32.74;98609.78;5036506;28;20033;-73
2021/09/22 11:03:45;;;;;;;11.13;10.48;;;;;;;24.53;33.45;98607.84;5031745;28;20572;-75
2021/09/22 11:06:44;;;;;;;13.10;12.48;;;;;;;23.18;34.28;98605.28;5036854;28;20028;-73
2021/09/22 11:09:28;;;;;;;14.38;13.68;;;;;;;22.08;36.29;98599.56;5042438;28;20029;-74
2021/09/22 11:11:58;;;;;;;13.38;12.77;;;;;;;21.58;36.55;98593.66;5031507;28;20409;-73
2021/09/22 11:14:27;;;;;;;14.25;13.65;;;;;;;21.26;39.00;98596.28;5031453;28;20393;-73
2021/09/22 11:16:54;;;;;;;12.73;12.05;;;;;;;21.49;38.75;98590.22;5013574;28;20386;-73